UNBB 240630Z 35002MPS 320V030 CAVOK 31/19 Q1006 R24/CLRD66 NOSIG RMK QFE732
QNH:(hPa/inHg/mmHg)1006 / 29.71 / 755
QFE:(hPa/inHg/mmHg)975 / 28.79 / 731
Temperature31
Dew Point19
Visibility> 10000
WeatherCAVOK
Cloud Cover
Transition Height700 m./3200 ft.
Transition LevelFL50
SQUAWK